createdAt,value
2023-05-14T00:00:02.714Z,15.6566
2023-05-14T00:01:03.787Z,15.3438
2023-05-14T00:02:04.922Z,15.5669
2023-05-14T00:03:06.239Z,15.0017
2023-05-14T00:04:07.612Z,14.9777
2023-05-14T00:05:09.681Z,14.1105
2023-05-14T00:06:10.793Z,14.7360
2023-05-14T00:07:11.897Z,15.1090
2023-05-14T00:08:12.893Z,15.0689
2023-05-14T00:09:14.057Z,14.7037
2023-05-14T00:10:15.084Z,15.7511
2023-05-14T00:11:16.155Z,15.2334
2023-05-14T00:12:17.226Z,15.5500
2023-05-14T00:13:18.293Z,15.0879
2023-05-14T00:14:19.423Z,15.2960
2023-05-14T00:15:20.467Z,15.0538
2023-05-14T00:16:21.579Z,14.5387
2023-05-14T00:17:22.688Z,14.7331
2023-05-14T00:18:23.795Z,15.2908
2023-05-14T00:19:24.875Z,14.7183
2023-05-14T00:20:26.048Z,14.9562
2023-05-14T00:21:27.140Z,14.1935
2023-05-14T00:22:28.272Z,14.5884
2023-05-14T00:23:29.391Z,15.1086
2023-05-14T00:24:30.542Z,14.8147
2023-05-14T00:25:31.660Z,14.2642
2023-05-14T00:26:32.684Z,14.8907
2023-05-14T00:27:33.748Z,14.6110
2023-05-14T00:28:34.886Z,14.6894
2023-05-14T00:29:35.992Z,14.9662
2023-05-14T00:30:37.124Z,15.6728
2023-05-14T00:31:38.142Z,14.9045
2023-05-14T00:32:39.340Z,14.4997
2023-05-14T00:33:40.332Z,14.7773
2023-05-14T00:34:41.492Z,15.0636
2023-05-14T00:35:42.557Z,15.6583
2023-05-14T00:36:43.562Z,14.9155
2023-05-14T00:37:44.542Z,14.3042
2023-05-14T00:38:45.687Z,14.3665
2023-05-14T00:39:46.697Z,14.9055
2023-05-14T00:40:47.880Z,15.2488
2023-05-14T00:41:48.878Z,15.4691
2023-05-14T00:42:49.986Z,15.6204
2023-05-14T00:43:51.053Z,14.7458
2023-05-14T00:44:52.100Z,15.3726
2023-05-14T00:45:53.339Z,15.1649
2023-05-14T00:46:54.493Z,15.9936
2023-05-14T00:47:55.461Z,15.3595
2023-05-14T00:48:56.532Z,15.4839
2023-05-14T00:49:57.743Z,15.8755
2023-05-14T00:50:58.723Z,15.4177
2023-05-14T00:51:59.856Z,14.8927
2023-05-14T00:53:00.886Z,15.5204
2023-05-14T00:54:02.031Z,15.5624
2023-05-14T00:55:03.055Z,15.2161
2023-05-14T00:56:04.111Z,15.2790
2023-05-14T00:57:05.243Z,14.3520
2023-05-14T00:58:06.300Z,15.7414
2023-05-14T00:59:07.397Z,15.6210
2023-05-14T01:00:08.473Z,16.2657
2023-05-14T01:01:09.716Z,14.8782
2023-05-14T01:02:10.705Z,16.0550
2023-05-14T01:03:12.010Z,16.4226
2023-05-14T01:04:13.181Z,15.2201
2023-05-14T01:05:14.310Z,15.6705
2023-05-14T01:06:15.469Z,14.4426
2023-05-14T01:07:16.491Z,14.3099
2023-05-14T01:08:17.628Z,14.8646
2023-05-14T01:09:18.724Z,14.7521
2023-05-14T01:10:19.809Z,13.9123
2023-05-14T01:11:20.953Z,15.0289
2023-05-14T01:12:21.960Z,14.5399
2023-05-14T01:13:23.144Z,15.1314
2023-05-14T01:14:24.117Z,14.2812
2023-05-14T01:15:25.238Z,14.3956
2023-05-14T01:16:26.365Z,14.7968
2023-05-14T01:17:28.408Z,13.6939
2023-05-14T01:18:29.488Z,14.3684
2023-05-14T01:19:30.553Z,13.9552
2023-05-14T01:20:31.681Z,14.2753
2023-05-14T01:21:32.713Z,14.6009
2023-05-14T01:22:34.840Z,14.1039
2023-05-14T01:23:35.976Z,14.2803
2023-05-14T01:24:36.978Z,14.1864
2023-05-14T01:25:38.074Z,14.1465
2023-05-14T01:26:39.109Z,14.9816
2023-05-14T01:27:40.245Z,13.7887
2023-05-14T01:28:41.303Z,14.4507
2023-05-14T01:29:43.399Z,14.5145
2023-05-14T01:30:44.509Z,14.4693
2023-05-14T01:31:45.592Z,14.9500
2023-05-14T01:32:46.707Z,14.3879
2023-05-14T01:33:48.832Z,14.9247
2023-05-14T01:34:49.851Z,14.1998
2023-05-14T01:35:50.988Z,14.5513
2023-05-14T01:36:52.028Z,13.9117
2023-05-14T01:37:53.168Z,13.9779
2023-05-14T01:38:54.230Z,14.5988
2023-05-14T01:39:55.321Z,14.9800
2023-05-14T01:40:56.362Z,14.5729
2023-05-14T01:41:57.524Z,14.5836
2023-05-14T01:42:58.623Z,14.1927
2023-05-14T01:43:59.728Z,14.7510
2023-05-14T01:45:00.858Z,15.1017
2023-05-14T01:46:01.965Z,15.0600
2023-05-14T01:47:03.041Z,15.4545
2023-05-14T01:48:04.241Z,14.9065
2023-05-14T01:49:06.256Z,15.0176
2023-05-14T01:50:07.461Z,14.8040
2023-05-14T01:51:08.440Z,14.5427
2023-05-14T01:52:09.581Z,14.4120
2023-05-14T01:53:10.598Z,14.7213
2023-05-14T01:54:11.762Z,14.7746
2023-05-14T01:55:12.747Z,14.6987
2023-05-14T01:56:13.913Z,14.5522
2023-05-14T01:57:14.938Z,14.6288
2023-05-14T01:58:16.043Z,15.0070
2023-05-14T01:59:17.072Z,13.9002
2023-05-14T02:00:18.201Z,15.1578
2023-05-14T02:01:19.313Z,15.3877
2023-05-14T02:02:20.426Z,15.2424
2023-05-14T02:03:21.500Z,15.5283
2023-05-14T02:04:22.765Z,14.7938
2023-05-14T02:05:23.825Z,14.7923
2023-05-14T02:06:24.921Z,14.1057
2023-05-14T02:07:25.983Z,15.8319
2023-05-14T02:08:27.117Z,15.4756
2023-05-14T02:09:28.117Z,16.0097
2023-05-14T02:10:29.290Z,15.1607
2023-05-14T02:11:30.381Z,14.9899
2023-05-14T02:12:31.483Z,15.1520
2023-05-14T02:13:32.568Z,15.4115
2023-05-14T02:14:33.635Z,15.3013
2023-05-14T02:15:34.662Z,16.1835
2023-05-14T02:16:35.770Z,14.7063
2023-05-14T02:17:36.963Z,15.2376
2023-05-14T02:18:38.142Z,14.2139
2023-05-14T02:19:39.162Z,15.5620
2023-05-14T02:20:40.267Z,15.3736
2023-05-14T02:21:41.299Z,14.7827
2023-05-14T02:22:42.464Z,14.5755
2023-05-14T02:23:43.468Z,15.0962
2023-05-14T02:24:44.503Z,15.6796
2023-05-14T02:25:45.644Z,14.8404
2023-05-14T02:26:46.757Z,15.4862
2023-05-14T02:27:47.844Z,13.9643
2023-05-14T02:28:48.959Z,14.4258
2023-05-14T02:29:49.977Z,16.1736
2023-05-14T02:30:51.210Z,14.7006
2023-05-14T02:31:53.281Z,15.3750
2023-05-14T02:32:54.495Z,15.5612
2023-05-14T02:33:55.501Z,14.8653
2023-05-14T02:34:56.554Z,14.7868
2023-05-14T02:35:57.680Z,14.5365
2023-05-14T02:36:58.789Z,14.3827
2023-05-14T02:37:59.762Z,15.6563
2023-05-14T02:39:00.831Z,15.6380
2023-05-14T02:40:01.862Z,14.6181
2023-05-14T02:41:02.916Z,15.4025
2023-05-14T02:42:03.996Z,15.4770
2023-05-14T02:43:05.125Z,15.5199
2023-05-14T02:44:06.227Z,16.0243
2023-05-14T02:45:07.356Z,15.2707
2023-05-14T02:46:08.382Z,15.2620
2023-05-14T02:47:09.657Z,15.1265
2023-05-14T02:48:10.857Z,14.8298
2023-05-14T02:49:11.905Z,15.6583
2023-05-14T02:50:12.982Z,15.2790
2023-05-14T02:51:14.004Z,14.9654
2023-05-14T02:52:15.098Z,15.7151
2023-05-14T02:53:16.129Z,14.9615
2023-05-14T02:54:17.228Z,14.8085
2023-05-14T02:55:18.342Z,14.1867
2023-05-14T02:56:19.477Z,14.8398
2023-05-14T02:57:20.595Z,14.6785
2023-05-14T02:58:26.018Z,15.3053
2023-05-14T02:59:22.102Z,14.8998
2023-05-14T03:00:23.750Z,15.9112
2023-05-14T03:01:25.536Z,15.0658
2023-05-14T03:02:27.941Z,15.0323
2023-05-14T03:03:29.359Z,15.3256
2023-05-14T03:04:30.920Z,15.7401
2023-05-14T03:05:32.063Z,16.3197
2023-05-14T03:06:33.095Z,15.9405
2023-05-14T03:07:34.189Z,16.4649
2023-05-14T03:08:35.408Z,17.6187
2023-05-14T03:09:38.301Z,16.1552
2023-05-14T03:10:39.522Z,17.1546
2023-05-14T03:11:40.633Z,16.5877
2023-05-14T03:12:41.799Z,16.7798
2023-05-14T03:13:42.909Z,16.5003
2023-05-14T03:14:43.986Z,16.4440
2023-05-14T03:15:45.075Z,16.3724
2023-05-14T03:16:46.197Z,17.1095
2023-05-14T03:17:48.342Z,17.3996
2023-05-14T03:18:49.359Z,17.4804
2023-05-14T03:19:50.487Z,16.9662
2023-05-14T03:20:51.621Z,16.9880
2023-05-14T03:21:52.681Z,17.5075
2023-05-14T03:22:54.111Z,17.0832
2023-05-14T03:23:55.301Z,16.2790
2023-05-14T03:24:56.373Z,16.8217
2023-05-14T03:25:57.474Z,17.5486
2023-05-14T03:26:58.544Z,17.5825
2023-05-14T03:27:59.681Z,17.5095
2023-05-14T03:29:00.673Z,17.1922
2023-05-14T03:30:02.104Z,16.8004
2023-05-14T03:31:03.119Z,16.4556
2023-05-14T03:42:43.676Z,16.0938
2023-05-14T03:42:43.676Z,15.0977
2023-05-14T03:42:43.676Z,17.5031
2023-05-14T03:42:54.766Z,15.9170
2023-05-14T03:43:55.862Z,16.9243
2023-05-14T03:44:56.931Z,15.7437
2023-05-14T03:45:58.033Z,15.0738
2023-05-14T03:46:59.031Z,15.6972
2023-05-14T03:48:00.309Z,15.5136
2023-05-14T03:49:01.422Z,16.0672
2023-05-14T03:50:02.602Z,15.1512
2023-05-14T03:51:03.643Z,15.8959
2023-05-14T03:52:04.775Z,15.1137
2023-05-14T03:53:05.908Z,14.1538
2023-05-14T03:54:07.016Z,15.2617
2023-05-14T03:55:08.098Z,14.6589
2023-05-14T03:56:09.099Z,14.9810
2023-05-14T03:57:10.183Z,14.6612
2023-05-14T03:58:11.290Z,14.2398
2023-05-14T03:59:12.357Z,15.3885
2023-05-14T04:00:13.869Z,14.9220
2023-05-14T04:01:14.923Z,15.1643
2023-05-14T04:02:16.113Z,15.1857
2023-05-14T04:03:19.809Z,14.8194
2023-05-14T04:04:19.211Z,15.0258
2023-05-14T04:05:20.575Z,14.8215
2023-05-14T04:06:22.752Z,15.5344
2023-05-14T04:07:24.216Z,15.9151
2023-05-14T04:08:26.279Z,15.2782
2023-05-14T04:09:27.761Z,15.4499
2023-05-14T04:11:33.934Z,14.6590
2023-05-14T04:12:34.586Z,15.2395
2023-05-14T04:13:36.602Z,14.8544
2023-05-14T04:14:38.807Z,15.4602
2023-05-14T04:15:40.497Z,16.1224
2023-05-14T04:16:42.097Z,15.4509
2023-05-14T04:17:44.520Z,15.3026
2023-05-14T04:18:46.450Z,15.0786
2023-05-14T04:19:47.977Z,15.9078
2023-05-14T04:20:49.712Z,15.3104
2023-05-14T04:21:52.041Z,14.6555
2023-05-14T04:22:53.410Z,14.3977
2023-05-14T04:23:54.652Z,14.1180
2023-05-14T04:24:55.893Z,14.3896
2023-05-14T04:25:57.013Z,14.1424
2023-05-14T04:26:58.489Z,14.6160
2023-05-14T04:28:00.121Z,14.6188
2023-05-14T04:29:01.304Z,14.7557
2023-05-14T04:30:02.649Z,15.2211
2023-05-14T04:31:03.900Z,16.1727
2023-05-14T04:32:05.218Z,14.4697
2023-05-14T04:33:07.356Z,14.6887
2023-05-14T04:34:08.464Z,14.5056
2023-05-14T04:35:09.696Z,15.4638
2023-05-14T04:36:11.067Z,15.2734
2023-05-14T04:37:12.272Z,15.1481
2023-05-14T04:38:13.445Z,16.0294
2023-05-14T04:39:14.607Z,15.4800
2023-05-14T04:40:15.805Z,14.3788
2023-05-14T04:41:16.947Z,15.1145
2023-05-14T04:42:18.165Z,14.8850
2023-05-14T04:43:19.401Z,15.4434
2023-05-14T04:44:20.565Z,14.4695
2023-05-14T04:45:21.729Z,14.5136
2023-05-14T04:46:22.987Z,14.6717
2023-05-14T04:47:24.163Z,14.1570
2023-05-14T04:48:25.438Z,14.8638
2023-05-14T04:49:26.665Z,15.1253
2023-05-14T04:50:27.992Z,15.0648
2023-05-14T04:51:29.149Z,14.0122
2023-05-14T04:52:30.594Z,13.9999
2023-05-14T04:53:31.720Z,14.5200
2023-05-14T04:54:33.059Z,14.6059
2023-05-14T04:55:35.312Z,13.6912
2023-05-14T04:56:36.522Z,14.5167
2023-05-14T04:57:37.836Z,12.9459
2023-05-14T04:58:39.024Z,13.5080
2023-05-14T04:59:40.165Z,14.2656
2023-05-14T05:00:41.334Z,13.7854
2023-05-14T05:01:42.631Z,13.7403
2023-05-14T05:02:44.868Z,14.1812
2023-05-14T05:03:46.185Z,12.9853
2023-05-14T05:04:47.505Z,13.2452
2023-05-14T05:05:48.736Z,12.6382
2023-05-14T05:06:49.865Z,13.3835
2023-05-14T05:07:51.100Z,13.0585
2023-05-14T05:08:52.349Z,13.2052
2023-05-14T05:09:53.847Z,13.5084
2023-05-14T05:10:55.235Z,13.2281
2023-05-14T05:11:56.427Z,13.1685
2023-05-14T05:12:57.629Z,13.4267
2023-05-14T05:13:58.755Z,13.1860
2023-05-14T05:14:59.968Z,12.7134
2023-05-14T05:16:01.232Z,13.1788
2023-05-14T05:17:02.592Z,12.5281
2023-05-14T05:18:04.004Z,12.9657
2023-05-14T05:19:06.329Z,13.6762
2023-05-14T05:20:08.085Z,12.9315
2023-05-14T05:21:09.171Z,14.0472
2023-05-14T05:22:10.358Z,13.1994
2023-05-14T05:23:11.526Z,13.0121
2023-05-14T05:24:12.754Z,12.5502
2023-05-14T05:25:14.484Z,12.5748
2023-05-14T05:26:15.608Z,12.3252
2023-05-14T05:27:16.965Z,12.5631
2023-05-14T05:28:18.299Z,12.0719
2023-05-14T05:29:19.805Z,13.2549
2023-05-14T05:30:20.920Z,12.0786
2023-05-14T05:31:22.183Z,12.8291
2023-05-14T05:32:23.488Z,13.0899
2023-05-14T05:33:24.696Z,13.0461
2023-05-14T05:34:25.908Z,12.4678
2023-05-14T05:35:26.984Z,12.5920
2023-05-14T05:36:28.356Z,12.4281
2023-05-14T05:37:29.622Z,11.9775
2023-05-14T05:38:31.005Z,12.9334
2023-05-14T05:39:32.421Z,12.4414
2023-05-14T05:40:33.603Z,12.0858
2023-05-14T05:41:34.781Z,12.9611
2023-05-14T05:42:36.032Z,12.4312
2023-05-14T05:43:37.318Z,13.3725
2023-05-14T05:44:38.613Z,12.5930
2023-05-14T05:45:39.771Z,12.9558
2023-05-14T05:46:41.018Z,12.4201
2023-05-14T05:47:42.287Z,12.4402
2023-05-14T05:48:43.473Z,12.3102
2023-05-14T05:49:44.923Z,12.1374
2023-05-14T05:50:46.166Z,12.4108
2023-05-14T05:51:47.303Z,12.7620
2023-05-14T05:52:48.481Z,12.6850
2023-05-14T05:53:49.773Z,13.0763
2023-05-14T05:54:51.020Z,13.7653
2023-05-14T05:55:52.190Z,14.2730
2023-05-14T05:56:53.286Z,11.9320
2023-05-14T05:57:54.578Z,11.9771
2023-05-14T05:58:55.942Z,11.7241
2023-05-14T05:59:57.105Z,12.2382
2023-05-14T06:00:58.425Z,12.2319
2023-05-14T06:01:59.691Z,11.6534
2023-05-14T06:03:01.049Z,12.4097
2023-05-14T06:04:02.236Z,12.0221
2023-05-14T06:05:03.365Z,12.4182
2023-05-14T06:06:04.437Z,12.1309
2023-05-14T06:07:05.512Z,12.0978
2023-05-14T06:08:06.734Z,12.0269
2023-05-14T06:09:07.940Z,12.4313
2023-05-14T06:10:09.197Z,12.6993
2023-05-14T06:11:10.311Z,12.4795
2023-05-14T06:12:11.541Z,12.3421
2023-05-14T06:13:12.793Z,12.2138
2023-05-14T06:14:14.086Z,13.1145
2023-05-14T06:15:15.433Z,12.6880
2023-05-14T06:16:16.799Z,12.5502
2023-05-14T06:17:17.899Z,12.8794
2023-05-14T06:18:20.065Z,13.0611
2023-05-14T06:19:21.484Z,13.5778
2023-05-14T06:20:22.942Z,12.2731
2023-05-14T06:21:25.151Z,12.1346
2023-05-14T06:22:26.651Z,12.3218
2023-05-14T06:23:27.962Z,12.1098
2023-05-14T06:24:29.087Z,13.0967
2023-05-14T06:25:30.375Z,12.0656
2023-05-14T06:26:31.438Z,13.0671
2023-05-14T06:27:33.982Z,13.0780
2023-05-14T06:28:35.265Z,13.0680
2023-05-14T06:29:36.541Z,12.8443
2023-05-14T06:30:38.319Z,13.0728
2023-05-14T06:31:39.669Z,12.3413
2023-05-14T06:32:41.028Z,13.8972
2023-05-14T06:33:43.388Z,12.9491
2023-05-14T06:34:44.685Z,13.8799
2023-05-14T06:35:45.946Z,13.9827
2023-05-14T06:36:47.372Z,13.6291
2023-05-14T06:37:48.540Z,13.5283
2023-05-14T06:38:49.672Z,13.1952
2023-05-14T06:39:50.816Z,13.5977
2023-05-14T06:40:52.096Z,12.8987
2023-05-14T06:41:53.328Z,13.0957
2023-05-14T06:42:54.548Z,13.8427
2023-05-14T06:43:55.842Z,13.1901
2023-05-14T06:44:57.131Z,13.0974
2023-05-14T06:45:58.553Z,11.9159
2023-05-14T06:46:59.860Z,12.9349
2023-05-14T06:48:01.571Z,13.2135
2023-05-14T06:49:03.798Z,12.3316
2023-05-14T06:50:04.906Z,12.3304
2023-05-14T06:51:06.171Z,13.5185
2023-05-14T06:52:07.441Z,12.3017
2023-05-14T06:53:08.594Z,12.9432
2023-05-14T06:54:10.028Z,12.8061
2023-05-14T06:55:11.401Z,12.3614
2023-05-14T06:56:12.469Z,12.4304
2023-05-14T06:57:14.823Z,13.1745
2023-05-14T06:58:16.234Z,13.2076
2023-05-14T06:59:18.570Z,13.9947
2023-05-14T07:00:19.850Z,14.3099
2023-05-14T07:01:21.208Z,14.3291
2023-05-14T07:02:23.435Z,13.0292
2023-05-14T07:03:24.750Z,14.3311
2023-05-14T07:04:25.959Z,15.3872
2023-05-14T07:05:28.232Z,14.8978
2023-05-14T07:06:30.543Z,14.8444
2023-05-14T07:07:31.837Z,15.0588
2023-05-14T07:08:33.031Z,15.3996
2023-05-14T07:09:34.267Z,15.7447
2023-05-14T07:10:35.650Z,16.5957
2023-05-14T07:11:36.800Z,15.5046
2023-05-14T07:12:37.958Z,15.4774
2023-05-14T07:13:39.144Z,14.8596
2023-05-14T07:14:40.450Z,14.4047
2023-05-14T07:16:54.973Z,15.6555
2023-05-14T07:17:05.416Z,15.6016
2023-05-14T07:18:06.960Z,15.7149
2023-05-14T07:19:09.213Z,15.2445
2023-05-14T07:20:11.363Z,14.7226
2023-05-14T07:21:12.959Z,14.7811
2023-05-14T07:22:14.507Z,14.1824
2023-05-14T07:23:16.977Z,14.1633
2023-05-14T07:24:17.237Z,15.7826
2023-05-14T07:25:19.405Z,14.8399
2023-05-14T07:26:21.285Z,14.4689
2023-05-14T07:27:23.947Z,14.4336
2023-05-14T07:28:26.409Z,14.7409
2023-05-14T07:29:28.815Z,14.2318
2023-05-14T07:30:28.227Z,14.5095
2023-05-14T07:31:29.797Z,13.9176
2023-05-14T07:32:32.215Z,13.4923
2023-05-14T07:33:33.651Z,14.7571
2023-05-14T07:34:34.978Z,13.6365
2023-05-14T07:35:36.570Z,14.4511
2023-05-14T07:36:38.564Z,14.5145
2023-05-14T07:37:40.542Z,15.3532
2023-05-14T07:38:43.278Z,14.4255
2023-05-14T07:39:41.935Z,14.0056
2023-05-14T07:40:43.546Z,13.9766
2023-05-14T07:41:45.250Z,13.6769
2023-05-14T07:42:46.716Z,15.0290
2023-05-14T07:43:48.045Z,14.9618
2023-05-14T07:44:50.149Z,15.1717
2023-05-14T07:45:51.563Z,14.7702
2023-05-14T07:46:52.925Z,14.4438
2023-05-14T07:47:54.440Z,13.9314
2023-05-14T07:48:55.812Z,14.4135
2023-05-14T07:49:57.552Z,14.6766
2023-05-14T07:50:59.985Z,13.2524
2023-05-14T07:52:01.515Z,13.7574
2023-05-14T07:53:03.381Z,14.5462
2023-05-14T07:54:03.241Z,13.5173
2023-05-14T07:55:04.845Z,13.5451
2023-05-14T07:56:06.315Z,13.2399
2023-05-14T07:57:07.581Z,12.8172
2023-05-14T07:58:09.003Z,11.8619
2023-05-14T07:59:10.576Z,12.6089
2023-05-14T08:00:11.904Z,12.6125
2023-05-14T08:01:14.084Z,11.8823
2023-05-14T08:02:16.439Z,11.9673
2023-05-14T08:03:19.361Z,13.5363
2023-05-14T08:04:19.533Z,12.1151
2023-05-14T08:05:21.269Z,11.2761
2023-05-14T08:06:22.767Z,10.8388
2023-05-14T08:07:26.556Z,10.7401
2023-05-14T08:08:28.600Z,10.0262
2023-05-14T08:09:30.089Z,10.9965
2023-05-14T08:10:31.960Z,11.8315
2023-05-14T08:11:35.101Z,10.9418
2023-05-14T08:12:36.212Z,10.5437
2023-05-14T08:13:38.195Z,11.0262
2023-05-14T08:14:39.432Z,10.4469
2023-05-14T08:15:40.753Z,11.2701
2023-05-14T08:16:42.301Z,11.2400
2023-05-14T08:17:44.366Z,11.0257
2023-05-14T08:18:45.956Z,10.5751
2023-05-14T08:19:47.462Z,10.4911
2023-05-14T08:20:49.003Z,11.2387
2023-05-14T08:21:50.135Z,10.5095
2023-05-14T08:22:51.467Z,9.7031
2023-05-14T08:23:52.573Z,9.7761
2023-05-14T08:24:53.739Z,9.6910
2023-05-14T08:26:04.512Z,8.6245
2023-05-14T08:26:56.273Z,8.7096
2023-05-14T08:27:57.366Z,9.4478
2023-05-14T08:28:58.590Z,9.3962
2023-05-14T08:30:01.040Z,9.8668
2023-05-14T08:31:02.250Z,9.1824
2023-05-14T08:32:08.744Z,11.3444
2023-05-14T08:33:03.959Z,11.4546
2023-05-14T08:34:05.031Z,10.2116
2023-05-14T08:35:06.088Z,10.8551
2023-05-14T08:36:07.178Z,10.9264
2023-05-14T08:37:08.424Z,10.6413
2023-05-14T08:38:09.536Z,11.6558
2023-05-14T08:39:10.801Z,11.8741
2023-05-14T08:40:11.854Z,11.8633
2023-05-14T08:41:12.913Z,12.2889
2023-05-14T08:42:14.058Z,12.2269
2023-05-14T08:43:15.058Z,11.2178
2023-05-14T08:44:16.126Z,11.9086
2023-05-14T08:45:17.152Z,12.1190
2023-05-14T08:46:18.299Z,12.3163
2023-05-14T08:47:19.308Z,12.5908
2023-05-14T08:48:20.528Z,11.5647
2023-05-14T08:49:22.780Z,10.7912
2023-05-14T08:50:23.974Z,10.9182
2023-05-14T08:51:24.996Z,10.9976
2023-05-14T08:52:26.050Z,11.2914
2023-05-14T08:53:27.224Z,10.8400
2023-05-14T08:54:28.334Z,10.8224
2023-05-14T08:55:29.434Z,11.0675
2023-05-14T08:56:30.500Z,11.4580
2023-05-14T08:57:31.825Z,10.8648
2023-05-14T08:58:32.843Z,10.3143
2023-05-14T08:59:33.938Z,9.5484
2023-05-14T09:00:35.012Z,10.1895
2023-05-14T09:01:36.089Z,10.1406
2023-05-14T09:02:37.150Z,10.8899
2023-05-14T09:03:38.517Z,10.3460
2023-05-14T09:04:40.654Z,10.0903
2023-05-14T09:05:41.726Z,9.8960
2023-05-14T09:06:43.025Z,10.7752
2023-05-14T09:07:44.104Z,10.0688
2023-05-14T09:08:45.217Z,9.8598
2023-05-14T09:09:46.317Z,10.8944
2023-05-14T09:10:47.421Z,10.8244
2023-05-14T09:11:48.535Z,10.6903
2023-05-14T09:12:49.598Z,9.2604
2023-05-14T09:13:50.734Z,10.5813
2023-05-14T09:14:51.944Z,10.0964
2023-05-14T09:15:53.048Z,10.3612
2023-05-14T09:16:54.206Z,10.6467
2023-05-14T09:17:55.396Z,10.4147
2023-05-14T09:18:56.559Z,10.1555
2023-05-14T09:19:57.663Z,10.5544
2023-05-14T09:20:58.777Z,10.9172
2023-05-14T09:21:59.858Z,9.9641
2023-05-14T09:23:00.934Z,9.4005
2023-05-14T09:24:02.042Z,8.8442
2023-05-14T09:25:03.120Z,8.9147
2023-05-14T09:26:04.171Z,8.8614
2023-05-14T09:27:05.325Z,8.3449
2023-05-14T09:28:06.403Z,7.7693
2023-05-14T09:29:07.482Z,6.7166
2023-05-14T09:30:08.572Z,7.0337
2023-05-14T09:31:09.814Z,7.5202
2023-05-14T09:32:10.872Z,7.6794
2023-05-14T09:33:12.009Z,7.4659
2023-05-14T09:34:13.107Z,7.8101
2023-05-14T09:35:14.165Z,7.0092
2023-05-14T09:36:15.429Z,7.5535
2023-05-14T09:37:16.492Z,6.9168
2023-05-14T09:38:17.554Z,7.4104
2023-05-14T09:39:18.779Z,7.3867
2023-05-14T09:40:19.821Z,7.7223
2023-05-14T09:41:20.878Z,7.3982
2023-05-14T09:42:21.961Z,6.6643
2023-05-14T09:43:23.326Z,6.1286
2023-05-14T09:44:24.355Z,5.6404
2023-05-14T09:45:25.443Z,6.1233
2023-05-14T09:46:26.508Z,5.5504
2023-05-14T09:47:27.723Z,6.1193
2023-05-14T09:48:28.995Z,6.9149
2023-05-14T09:49:30.050Z,7.0109
2023-05-14T09:50:31.141Z,7.1698
2023-05-14T09:51:32.151Z,7.4075
2023-05-14T09:52:33.292Z,7.2613
2023-05-14T09:53:34.328Z,7.2883
2023-05-14T09:54:35.593Z,7.9819
2023-05-14T09:55:36.622Z,8.8260
2023-05-14T09:56:37.627Z,8.6578
2023-05-14T09:57:38.775Z,7.9455
2023-05-14T09:58:39.866Z,8.0376
2023-05-14T09:59:40.894Z,7.7359
2023-05-14T10:00:41.952Z,7.0857
2023-05-14T10:01:43.310Z,7.4526
2023-05-14T10:02:44.474Z,7.6449
2023-05-14T10:03:46.519Z,7.6629
2023-05-14T10:04:47.648Z,8.2455
2023-05-14T10:05:48.739Z,8.1921
2023-05-14T10:06:49.836Z,8.3042
2023-05-14T10:07:50.872Z,7.5922
2023-05-14T10:08:51.947Z,7.9145
2023-05-14T10:09:53.230Z,8.9671
2023-05-14T10:10:54.355Z,9.0564
2023-05-14T10:11:55.468Z,8.3681
2023-05-14T10:12:56.523Z,8.1175
2023-05-14T10:13:57.596Z,8.7219
2023-05-14T10:14:58.820Z,8.6481
2023-05-14T10:15:59.872Z,9.2679
2023-05-14T10:17:00.989Z,8.3738
2023-05-14T10:18:02.052Z,7.9442
2023-05-14T10:19:04.146Z,8.2474
2023-05-14T10:20:05.327Z,9.2616
2023-05-14T10:21:07.435Z,8.9877
2023-05-14T10:22:08.451Z,8.6419
2023-05-14T10:23:09.541Z,8.7295
2023-05-14T10:24:10.582Z,7.4854
2023-05-14T10:25:11.658Z,7.2162
2023-05-14T10:26:12.889Z,6.3251
2023-05-14T10:27:14.021Z,5.6663
2023-05-14T10:28:15.070Z,5.5478
2023-05-14T10:29:16.292Z,5.4920
2023-05-14T10:30:17.295Z,5.0832
2023-05-14T10:31:18.539Z,4.4572
2023-05-14T10:32:19.571Z,4.9440
2023-05-14T10:33:20.634Z,4.8747
2023-05-14T10:34:21.668Z,4.9429
2023-05-14T10:35:22.764Z,4.9688
2023-05-14T10:36:23.841Z,4.6633
2023-05-14T10:37:25.078Z,4.6345
2023-05-14T10:38:26.143Z,4.4358
2023-05-14T10:39:27.206Z,3.8783
2023-05-14T10:40:28.266Z,3.3151
2023-05-14T10:41:29.429Z,3.4297
2023-05-14T10:42:30.550Z,3.7137
2023-05-14T10:43:31.675Z,3.7056
2023-05-14T10:44:32.744Z,3.8370
2023-05-14T10:45:33.825Z,3.5715
2023-05-14T10:46:35.145Z,3.8416
2023-05-14T10:47:37.287Z,3.4786
2023-05-14T10:48:39.274Z,3.7883
2023-05-14T10:49:43.831Z,4.0921
2023-05-14T10:50:41.901Z,4.8440
2023-05-14T10:51:43.093Z,4.7612
2023-05-14T10:52:45.079Z,4.4575
2023-05-14T10:53:46.139Z,4.8448
2023-05-14T10:54:47.278Z,4.6254
2023-05-14T10:55:48.429Z,4.9036
2023-05-14T10:56:49.554Z,4.8992
2023-05-14T10:57:50.758Z,4.6927
2023-05-14T10:58:51.872Z,4.9980
2023-05-14T10:59:52.931Z,4.7387
2023-05-14T11:00:54.072Z,3.7971
2023-05-14T11:01:55.208Z,3.8926
2023-05-14T11:02:56.665Z,4.1834
2023-05-14T11:03:57.823Z,4.1334
2023-05-14T11:04:58.932Z,3.8787
2023-05-14T11:06:00.045Z,3.5268
2023-05-14T11:07:01.095Z,3.0743
2023-05-14T11:08:02.167Z,2.9667
2023-05-14T11:09:03.239Z,3.1241
2023-05-14T11:10:04.281Z,3.5519
2023-05-14T11:11:05.396Z,3.9079
2023-05-14T11:12:06.452Z,4.6410
2023-05-14T11:13:07.560Z,4.4862
2023-05-14T11:14:10.144Z,4.4746
2023-05-14T11:15:11.449Z,4.5812
2023-05-14T11:16:22.825Z,4.7357
2023-05-14T11:17:13.362Z,4.4639
2023-05-14T11:18:15.535Z,3.9664
2023-05-14T11:19:16.733Z,3.9545
2023-05-14T11:20:17.981Z,4.5224
2023-05-14T11:21:19.114Z,4.5741
2023-05-14T11:22:20.280Z,4.6407
2023-05-14T11:23:21.354Z,4.1728
2023-05-14T11:24:22.375Z,4.5737
2023-05-14T11:25:23.638Z,4.8071
2023-05-14T11:26:24.853Z,4.4175
2023-05-14T11:27:26.128Z,4.5311
2023-05-14T11:28:27.319Z,4.3672
2023-05-14T11:29:28.457Z,4.3242
2023-05-14T11:30:29.929Z,4.6829
2023-05-14T11:31:31.279Z,4.8960
2023-05-14T11:32:33.475Z,5.1849
2023-05-14T11:33:35.656Z,5.2463
2023-05-14T11:34:36.939Z,4.8483
2023-05-14T11:35:38.044Z,4.5489
2023-05-14T11:36:39.117Z,4.6121
2023-05-14T11:37:40.371Z,5.1595
2023-05-14T11:38:41.455Z,5.0327
2023-05-14T11:39:42.606Z,6.0117
2023-05-14T11:40:44.003Z,6.2207
2023-05-14T11:41:45.065Z,6.1397
2023-05-14T11:42:46.204Z,6.4936
2023-05-14T11:43:47.283Z,6.3874
2023-05-14T11:44:48.450Z,6.5256
2023-05-14T11:45:49.724Z,6.8846
2023-05-14T11:46:50.856Z,7.1961
2023-05-14T11:47:51.976Z,7.7319
2023-05-14T11:48:54.088Z,8.0291
2023-05-14T11:49:55.190Z,7.5057
2023-05-14T11:50:56.262Z,7.6015
2023-05-14T11:51:57.418Z,8.2410
2023-05-14T11:52:58.465Z,7.8427
2023-05-14T11:53:59.553Z,8.7927
2023-05-14T11:55:00.629Z,9.7492
2023-05-14T11:56:01.729Z,9.1003
2023-05-14T11:57:03.002Z,8.6702
2023-05-14T11:58:04.113Z,9.6486
2023-05-14T11:59:05.153Z,10.3261
2023-05-14T12:00:06.310Z,9.3384
2023-05-14T12:01:07.393Z,10.2469
2023-05-14T12:02:08.506Z,10.1757
2023-05-14T12:03:09.697Z,10.1962
2023-05-14T12:04:10.995Z,10.3381
2023-05-14T12:05:12.157Z,10.0404
2023-05-14T12:06:13.283Z,9.2368
2023-05-14T12:07:14.359Z,9.4752
2023-05-14T12:08:15.428Z,9.5444
2023-05-14T12:09:16.783Z,9.6101
2023-05-14T12:10:17.888Z,9.0077
2023-05-14T12:11:19.006Z,9.0178
2023-05-14T12:12:20.098Z,10.0233
2023-05-14T12:13:21.146Z,9.5257
2023-05-14T12:14:22.312Z,10.0701
2023-05-14T12:15:23.409Z,10.0592
2023-05-14T12:16:24.814Z,8.8399
2023-05-14T12:17:26.905Z,9.4053
2023-05-14T12:18:29.061Z,8.6337
2023-05-14T12:19:31.179Z,8.8908
2023-05-14T12:20:32.361Z,9.1082
2023-05-14T12:21:33.459Z,7.8994
2023-05-14T12:22:36.868Z,7.0535
2023-05-14T12:23:34.866Z,5.4565
2023-05-14T12:24:36.214Z,3.9191
2023-05-14T12:25:37.301Z,3.5675
2023-05-14T12:26:38.624Z,3.5128
2023-05-14T12:27:39.740Z,3.5488
2023-05-14T12:28:40.849Z,3.6593
2023-05-14T12:29:41.935Z,2.8051
2023-05-14T12:30:43.009Z,2.9541
2023-05-14T12:31:44.184Z,3.2598
2023-05-14T12:32:45.318Z,3.4492
2023-05-14T12:33:46.439Z,3.2021
2023-05-14T12:34:47.526Z,3.4430
2023-05-14T12:35:48.728Z,3.5808